createdAt,value
2023-01-12T00:01:16.003Z,84.07
2023-01-12T00:04:18.335Z,84.14
2023-01-12T00:07:21.290Z,83.97
2023-01-12T00:10:22.861Z,84.14
2023-01-12T00:13:24.574Z,84.19
2023-01-12T00:16:27.509Z,83.67
2023-01-12T00:19:29.185Z,84.22
2023-01-12T00:22:30.911Z,84.15
2023-01-12T00:25:32.429Z,83.88
2023-01-12T00:28:35.238Z,84.05
2023-01-12T00:31:36.844Z,84.10
2023-01-12T00:34:38.436Z,83.71
2023-01-12T00:37:39.982Z,83.84
2023-01-12T00:40:41.567Z,83.90
2023-01-12T00:43:43.345Z,84.00
2023-01-12T00:46:44.835Z,83.90
2023-01-12T00:49:46.963Z,84.19
2023-01-12T00:52:48.640Z,84.08
2023-01-12T00:55:50.246Z,83.97
2023-01-12T00:58:51.872Z,84.27
2023-01-12T01:01:53.505Z,83.94
2023-01-12T01:04:55.599Z,84.17
2023-01-12T01:07:57.724Z,84.26
2023-01-12T01:11:06.754Z,84.25
2023-01-12T01:14:08.859Z,84.37
2023-01-12T01:17:10.753Z,84.44
2023-01-12T01:20:12.700Z,84.29
2023-01-12T01:23:14.439Z,84.30
2023-01-12T01:26:19.671Z,84.53
2023-01-12T01:29:21.211Z,84.46
2023-01-12T01:32:23.223Z,84.48
2023-01-12T01:35:24.837Z,84.52
2023-01-12T01:38:26.870Z,84.53
2023-01-12T01:41:33.114Z,84.74
2023-01-12T01:44:43.621Z,84.98
2023-01-12T01:47:51.632Z,84.69
2023-01-12T01:50:59.578Z,84.44
2023-01-12T01:54:03.410Z,84.55
2023-01-12T01:57:06.161Z,84.31
2023-01-12T02:00:09.799Z,84.31
2023-01-12T02:03:12.045Z,84.58
2023-01-12T02:06:14.518Z,84.37
2023-01-12T02:09:23.103Z,84.43
2023-01-12T02:12:24.795Z,84.80
2023-01-12T02:15:28.872Z,84.73
2023-01-12T02:18:39.629Z,84.91
2023-01-12T02:22:10.822Z,84.91
2023-01-12T02:25:44.087Z,84.85
2023-01-12T02:29:09.208Z,84.75
2023-01-12T02:32:29.303Z,84.81
2023-01-12T02:35:49.284Z,84.91
2023-01-12T02:39:14.340Z,84.61
2023-01-12T02:42:40.484Z,84.88
2023-01-12T02:45:55.236Z,84.63
2023-01-12T02:49:03.097Z,84.57
2023-01-12T02:52:09.243Z,84.82
2023-01-12T02:55:13.217Z,84.65
2023-01-12T02:58:17.529Z,84.55
2023-01-12T03:01:20.167Z,85.05
2023-01-12T03:04:23.290Z,84.95
2023-01-12T03:07:28.996Z,84.83
2023-01-12T03:10:41.943Z,84.60
2023-01-12T03:13:47.780Z,84.52
2023-01-12T03:16:50.151Z,84.64
2023-01-12T03:19:53.480Z,84.46
2023-01-12T03:23:01.154Z,84.54
2023-01-12T03:26:03.568Z,84.61
2023-01-12T03:29:26.194Z,84.89
2023-01-12T03:32:28.100Z,84.77
2023-01-12T03:35:33.108Z,84.73
2023-01-12T03:38:50.693Z,84.80
2023-01-12T03:42:04.073Z,84.89
2023-01-12T03:45:18.519Z,84.93
2023-01-12T03:48:46.867Z,84.87
2023-01-12T03:51:49.281Z,84.76
2023-01-12T03:54:52.592Z,84.89
2023-01-12T03:57:54.298Z,84.64
2023-01-12T04:00:55.891Z,85.02
2023-01-12T04:03:57.505Z,84.78
2023-01-12T04:07:01.075Z,84.60
2023-01-12T04:10:03.570Z,84.89
2023-01-12T04:13:05.268Z,84.82
2023-01-12T04:16:06.918Z,84.79
2023-01-12T04:19:08.826Z,84.64
2023-01-12T04:22:14.768Z,84.74
2023-01-12T04:25:22.792Z,84.65
2023-01-12T04:28:24.488Z,84.61
2023-01-12T04:31:26.097Z,84.63
2023-01-12T04:34:27.666Z,84.56
2023-01-12T04:37:32.512Z,84.78
2023-01-12T04:40:34.173Z,84.66
2023-01-12T04:43:35.889Z,84.54
2023-01-12T04:46:37.492Z,84.65
2023-01-12T04:49:39.126Z,84.56
2023-01-12T04:52:40.794Z,84.35
2023-01-12T04:55:43.424Z,84.37
2023-01-12T04:58:45.865Z,84.37
2023-01-12T05:01:47.546Z,84.39
2023-01-12T05:04:49.451Z,84.33
2023-01-12T05:07:51.088Z,84.56
2023-01-12T05:10:54.534Z,84.45
2023-01-12T05:13:57.114Z,84.43
2023-01-12T05:16:58.834Z,84.54
2023-01-12T05:20:01.016Z,84.55
2023-01-12T05:23:02.941Z,84.43
2023-01-12T05:26:05.233Z,84.41
2023-01-12T05:29:08.055Z,84.26
2023-01-12T05:32:09.673Z,84.37
2023-01-12T05:35:11.388Z,84.31
2023-01-12T05:38:12.994Z,84.63
2023-01-12T05:41:14.694Z,85.01
2023-01-12T05:44:16.359Z,84.76
2023-01-12T05:47:18.337Z,84.49
2023-01-12T05:50:19.914Z,83.74
2023-01-12T05:53:21.896Z,83.42
2023-01-12T05:56:26.186Z,83.81
2023-01-12T06:02:47.088Z,83.96
2023-01-12T06:05:55.283Z,84.30
2023-01-12T06:08:58.184Z,84.73
2023-01-12T06:11:59.793Z,84.70
2023-01-12T06:15:01.461Z,84.84
2023-01-12T06:18:03.077Z,85.07
2023-01-12T06:21:05.817Z,85.10
2023-01-12T06:24:07.689Z,84.91
2023-01-12T06:27:09.436Z,85.16
2023-01-12T06:30:11.867Z,85.17
2023-01-12T06:33:13.419Z,85.20
2023-01-12T06:36:14.965Z,85.29
2023-01-12T06:39:16.566Z,85.43
2023-01-12T06:42:18.231Z,85.46
2023-01-12T06:45:19.764Z,85.32
2023-01-12T06:48:21.724Z,85.19
2023-01-12T06:51:23.521Z,85.25
2023-01-12T06:54:25.283Z,85.14
2023-01-12T06:57:26.766Z,85.06
2023-01-12T07:00:28.394Z,85.14
2023-01-12T07:03:30.394Z,85.13
2023-01-12T07:06:32.017Z,85.14
2023-01-12T07:09:34.013Z,85.15
2023-01-12T07:12:35.676Z,85.03
2023-01-12T07:15:37.239Z,84.98
2023-01-12T07:18:38.927Z,84.94
2023-01-12T07:21:40.543Z,85.06
2023-01-12T07:24:42.239Z,84.88
2023-01-12T07:27:50.617Z,84.94
2023-01-12T07:30:52.378Z,84.97
2023-01-12T07:33:55.101Z,84.85
2023-01-12T07:36:57.862Z,84.82
2023-01-12T07:39:59.405Z,84.65
2023-01-12T07:43:02.780Z,84.77
2023-01-12T07:46:04.659Z,84.59
2023-01-12T07:49:06.321Z,84.56
2023-01-12T07:52:11.262Z,84.44
2023-01-12T07:55:13.308Z,84.48
2023-01-12T07:58:14.868Z,84.39
2023-01-12T08:01:16.749Z,84.40
2023-01-12T08:04:18.374Z,84.15
2023-01-12T08:07:23.303Z,84.18
2023-01-12T08:10:25.201Z,84.03
2023-01-12T08:13:26.838Z,83.75
2023-01-12T08:16:33.095Z,83.65
2023-01-12T08:19:42.727Z,83.40
2023-01-12T08:22:47.819Z,83.27
2023-01-12T08:25:54.985Z,83.12
2023-01-12T08:29:02.234Z,83.23
2023-01-12T08:32:05.759Z,83.29
2023-01-12T08:35:08.237Z,83.14
2023-01-12T08:38:10.011Z,83.01
2023-01-12T08:41:11.598Z,83.08
2023-01-12T08:44:13.043Z,83.19
2023-01-12T08:47:18.206Z,83.21
2023-01-12T08:50:19.993Z,83.18
2023-01-12T08:53:21.601Z,83.22
2023-01-12T08:56:23.250Z,82.93
2023-01-12T08:59:24.916Z,82.91
2023-01-12T09:02:26.739Z,82.92
2023-01-12T09:05:28.299Z,82.92
2023-01-12T09:08:29.929Z,82.84
2023-01-12T09:11:31.558Z,82.81
2023-01-12T09:14:36.326Z,82.98
2023-01-12T09:17:37.883Z,82.83
2023-01-12T09:20:39.397Z,82.58
2023-01-12T09:23:42.027Z,82.37
2023-01-12T09:26:45.966Z,82.25
2023-01-12T09:29:47.619Z,82.29
2023-01-12T09:32:49.221Z,82.56
2023-01-12T09:35:50.865Z,82.55
2023-01-12T09:38:52.637Z,82.35
2023-01-12T09:41:54.317Z,82.54
2023-01-12T09:44:55.939Z,82.20
2023-01-12T09:47:58.389Z,82.11
2023-01-12T09:51:11.963Z,82.04
2023-01-12T09:54:13.559Z,81.59
2023-01-12T09:57:43.032Z,81.64
2023-01-12T10:00:50.159Z,81.64
2023-01-12T10:03:51.820Z,81.76
2023-01-12T10:06:54.594Z,81.82
2023-01-12T10:09:56.666Z,82.06
2023-01-12T10:13:03.109Z,82.19
2023-01-12T10:16:08.217Z,82.16
2023-01-12T10:19:27.311Z,81.90
2023-01-12T10:22:44.157Z,81.67
2023-01-12T10:25:45.803Z,81.35
2023-01-12T10:28:48.613Z,81.04
2023-01-12T10:31:50.315Z,80.58
2023-01-12T10:34:52.532Z,80.17
2023-01-12T10:37:55.990Z,78.68
2023-01-12T10:41:12.144Z,76.01
2023-01-12T10:44:16.027Z,75.91
2023-01-12T10:47:18.410Z,73.94
2023-01-12T10:50:28.878Z,70.10
2023-01-12T10:53:37.646Z,72.15
2023-01-12T10:56:42.174Z,66.24
2023-01-12T10:59:50.942Z,63.11
2023-01-12T11:02:53.004Z,60.87
2023-01-12T11:05:54.779Z,63.04
2023-01-12T11:08:57.104Z,62.99
2023-01-12T11:12:01.027Z,61.66
2023-01-12T11:15:12.072Z,61.91
2023-01-12T11:18:28.789Z,61.52
2023-01-12T11:21:35.405Z,59.55
2023-01-12T11:24:49.618Z,59.99
2023-01-12T11:28:31.384Z,59.80
2023-01-12T11:31:37.914Z,59.60
2023-01-12T11:34:51.803Z,61.59
2023-01-12T11:37:55.018Z,62.97
2023-01-12T11:40:57.615Z,62.86
2023-01-12T11:44:04.025Z,63.30
2023-01-12T11:47:13.470Z,64.60
2023-01-12T11:50:24.140Z,64.99
2023-01-12T11:53:25.996Z,64.93
2023-01-12T11:56:29.127Z,63.33
2023-01-12T11:59:42.664Z,64.81
2023-01-12T12:03:37.215Z,61.80
2023-01-12T12:06:48.984Z,62.28
2023-01-12T12:09:57.654Z,63.19
2023-01-12T12:13:08.384Z,62.89
2023-01-12T12:16:25.109Z,61.52
2023-01-12T12:19:45.688Z,64.24
2023-01-12T12:23:00.844Z,67.08
2023-01-12T12:26:12.019Z,67.28
2023-01-12T12:29:35.354Z,67.96
2023-01-12T12:32:44.057Z,66.78
2023-01-12T12:36:03.899Z,67.78
2023-01-12T12:39:25.740Z,67.86
2023-01-12T12:42:40.839Z,68.59
2023-01-12T12:46:05.822Z,68.81
2023-01-12T12:49:14.534Z,69.18
2023-01-12T12:52:16.282Z,68.10
2023-01-12T12:55:18.046Z,68.70
2023-01-12T12:58:22.705Z,67.99
2023-01-12T13:01:36.235Z,68.58
2023-01-12T13:04:43.839Z,68.38
2023-01-12T13:07:52.099Z,66.85
2023-01-12T13:10:57.889Z,62.40
2023-01-12T13:14:01.342Z,62.25
2023-01-12T13:17:20.447Z,60.70
2023-01-12T13:20:34.546Z,62.05
2023-01-12T13:23:47.590Z,61.24
2023-01-12T13:26:49.203Z,62.62
2023-01-12T13:29:50.967Z,61.62
2023-01-12T13:33:20.428Z,60.97
2023-01-12T13:36:30.764Z,58.60
2023-01-12T13:39:34.957Z,59.76
2023-01-12T13:42:36.755Z,60.88
2023-01-12T13:45:39.570Z,64.47
2023-01-12T13:48:47.739Z,65.83
2023-01-12T13:51:58.717Z,65.76
2023-01-12T13:55:00.564Z,64.40
2023-01-12T13:58:06.116Z,62.23
2023-01-12T14:01:17.551Z,61.62
2023-01-12T14:04:37.892Z,62.50
2023-01-12T14:07:51.624Z,62.77
2023-01-12T14:11:12.312Z,61.55
2023-01-12T14:14:32.921Z,61.89
2023-01-12T14:17:34.653Z,62.80
2023-01-12T14:20:42.046Z,63.54
2023-01-12T14:23:43.713Z,64.40
2023-01-12T14:26:45.521Z,65.14
2023-01-12T14:29:47.189Z,66.14
2023-01-12T14:32:48.969Z,66.97
2023-01-12T14:35:51.428Z,67.33
2023-01-12T14:38:53.903Z,67.96
2023-01-12T14:41:56.549Z,68.20
2023-01-12T14:44:58.211Z,68.44
2023-01-12T14:48:38.732Z,68.56
2023-01-12T14:51:51.726Z,69.26
2023-01-12T14:54:53.468Z,69.39
2023-01-12T14:57:57.161Z,69.53
2023-01-12T15:00:58.821Z,69.69
2023-01-12T15:04:00.788Z,69.93
2023-01-12T15:07:06.433Z,70.18
2023-01-12T15:10:14.579Z,70.59
2023-01-12T15:13:30.776Z,70.68
2023-01-12T15:16:32.463Z,70.62
2023-01-12T15:19:33.930Z,71.00
2023-01-12T15:22:35.497Z,71.18
2023-01-12T15:25:39.400Z,71.45
2023-01-12T15:28:41.009Z,71.40
2023-01-12T15:31:42.569Z,71.51
2023-01-12T15:34:44.100Z,71.72
2023-01-12T15:37:45.670Z,71.88
2023-01-12T15:40:47.638Z,71.89
2023-01-12T15:43:49.329Z,72.04
2023-01-12T15:46:50.878Z,72.15
2023-01-12T15:49:52.404Z,72.17
2023-01-12T15:52:53.934Z,72.21
2023-01-12T15:55:55.484Z,72.34
2023-01-12T15:58:57.074Z,72.44
2023-01-12T16:01:58.984Z,72.50
2023-01-12T16:05:01.550Z,72.69
2023-01-12T16:08:03.358Z,72.71
2023-01-12T16:11:05.366Z,72.58
2023-01-12T16:14:06.869Z,72.79
2023-01-12T16:17:08.749Z,73.02
2023-01-12T16:20:11.130Z,73.14
2023-01-12T16:23:12.806Z,73.19
2023-01-12T16:26:14.265Z,73.35
2023-01-12T16:29:16.052Z,73.33
2023-01-12T16:32:18.616Z,73.44
2023-01-12T16:35:20.261Z,73.81
2023-01-12T16:38:21.779Z,73.85
2023-01-12T16:41:23.403Z,73.84
2023-01-12T16:44:25.019Z,73.68
2023-01-12T16:47:26.776Z,73.72
2023-01-12T16:50:28.279Z,73.61
2023-01-12T16:53:29.900Z,73.64
2023-01-12T16:56:31.512Z,73.84
2023-01-12T16:59:33.170Z,74.07
2023-01-12T17:02:35.209Z,74.15
2023-01-12T17:05:41.225Z,74.07
2023-01-12T17:08:43.203Z,74.25
2023-01-12T17:11:44.925Z,74.29
2023-01-12T17:14:46.578Z,74.45
2023-01-12T17:17:48.975Z,74.34
2023-01-12T17:21:01.251Z,74.26
2023-01-12T17:24:02.941Z,74.17
2023-01-12T17:27:04.541Z,74.01
2023-01-12T17:30:06.846Z,73.83
2023-01-12T17:33:08.580Z,73.65
2023-01-12T17:36:10.628Z,73.64
2023-01-12T17:39:12.399Z,73.36
2023-01-12T17:42:14.476Z,73.73
2023-01-12T17:45:16.246Z,73.81
2023-01-12T17:48:18.111Z,74.00
2023-01-12T17:51:19.559Z,74.32
2023-01-12T17:54:21.185Z,74.28
2023-01-12T17:57:22.880Z,74.20
2023-01-12T18:00:24.491Z,74.40
2023-01-12T18:03:26.213Z,74.48
2023-01-12T18:06:27.899Z,74.57
2023-01-12T18:09:29.684Z,74.73
2023-01-12T18:12:31.150Z,74.73
2023-01-12T18:15:32.916Z,74.68
2023-01-12T18:18:34.477Z,75.01
2023-01-12T18:21:36.071Z,75.03
2023-01-12T18:24:37.768Z,74.78
2023-01-12T18:27:39.280Z,74.69
2023-01-12T18:30:41.110Z,74.56
2023-01-12T18:33:43.481Z,74.56
2023-01-12T18:36:45.619Z,74.83
2023-01-12T18:39:49.165Z,74.99
2023-01-12T18:42:50.699Z,74.98
2023-01-12T18:45:52.295Z,75.15
2023-01-12T18:48:53.857Z,75.16
2023-01-12T18:51:56.945Z,75.09
2023-01-12T18:54:58.680Z,75.26
2023-01-12T18:58:00.564Z,75.45
2023-01-12T19:01:02.821Z,75.44
2023-01-12T19:04:04.820Z,75.48
2023-01-12T19:07:07.547Z,75.43
2023-01-12T19:10:09.677Z,75.18
2023-01-12T19:13:11.583Z,75.27
2023-01-12T19:16:13.858Z,75.44
2023-01-12T19:19:15.513Z,75.09
2023-01-12T19:22:17.269Z,75.15
2023-01-12T19:25:19.955Z,75.28
2023-01-12T19:28:21.561Z,75.07
2023-01-12T19:31:23.268Z,75.01
2023-01-12T19:34:24.890Z,75.12
2023-01-12T19:37:26.531Z,75.32
2023-01-12T19:40:28.117Z,75.61
2023-01-12T19:43:29.664Z,75.54
2023-01-12T19:46:32.391Z,75.62
2023-01-12T19:49:34.122Z,75.64
2023-01-12T19:52:39.073Z,75.70
2023-01-12T19:55:41.566Z,75.35
2023-01-12T19:58:43.234Z,75.34
2023-01-12T20:01:44.934Z,75.31
2023-01-12T20:04:46.909Z,75.28
2023-01-12T20:07:52.930Z,75.23
2023-01-12T20:10:56.009Z,75.32
2023-01-12T20:13:57.894Z,75.48
2023-01-12T20:16:59.657Z,75.73
2023-01-12T20:20:02.678Z,75.56
2023-01-12T20:23:04.243Z,75.87
2023-01-12T20:26:09.228Z,75.62
2023-01-12T20:29:10.740Z,75.45
2023-01-12T20:32:12.562Z,75.50
2023-01-12T20:35:18.696Z,75.73
2023-01-12T20:38:20.659Z,75.84
2023-01-12T20:41:22.227Z,76.03
2023-01-12T20:44:23.829Z,75.78
2023-01-12T20:47:27.012Z,75.70
2023-01-12T20:50:28.566Z,75.74
2023-01-12T20:53:30.494Z,75.80
2023-01-12T20:56:32.176Z,76.22
2023-01-12T20:59:33.618Z,76.53
2023-01-12T21:02:35.147Z,76.81
2023-01-12T21:05:41.043Z,76.97
2023-01-12T21:08:44.375Z,76.99
2023-01-12T21:11:46.222Z,77.05
2023-01-12T21:14:48.085Z,77.10
2023-01-12T21:17:49.713Z,76.89
2023-01-12T21:20:51.420Z,76.69
2023-01-12T21:23:52.961Z,76.34
2023-01-12T21:26:55.319Z,76.50
2023-01-12T21:29:57.815Z,76.67
2023-01-12T21:32:59.358Z,76.79
2023-01-12T21:36:01.561Z,76.88
2023-01-12T21:39:03.647Z,76.72
2023-01-12T21:42:05.338Z,76.61
2023-01-12T21:45:07.077Z,76.56
2023-01-12T21:48:09.664Z,76.56
2023-01-12T21:51:13.838Z,76.81
2023-01-12T21:54:15.510Z,77.04
2023-01-12T21:57:17.136Z,77.17
2023-01-12T22:00:19.094Z,77.07
2023-01-12T22:03:24.387Z,77.05
2023-01-12T22:06:25.940Z,77.04
2023-01-12T22:09:27.708Z,76.69
2023-01-12T22:12:29.530Z,76.68
2023-01-12T22:15:31.678Z,75.97
2023-01-12T22:18:33.252Z,75.80
2023-01-12T22:21:35.075Z,75.93
2023-01-12T22:24:36.764Z,76.06
2023-01-12T22:27:38.523Z,76.10
2023-01-12T22:30:40.129Z,76.34
2023-01-12T22:33:50.836Z,76.42
2023-01-12T22:36:52.374Z,76.41
2023-01-12T22:39:54.640Z,76.57
2023-01-12T22:42:56.208Z,76.68
2023-01-12T22:45:57.951Z,76.81
2023-01-12T22:48:59.733Z,76.71
2023-01-12T22:52:02.712Z,76.71
2023-01-12T22:55:05.356Z,76.73
2023-01-12T22:58:06.912Z,76.69
2023-01-12T23:01:09.790Z,76.72
2023-01-12T23:04:11.486Z,76.54
2023-01-12T23:07:13.213Z,76.71
2023-01-12T23:10:15.401Z,76.74
2023-01-12T23:13:20.155Z,76.71
2023-01-12T23:16:22.016Z,76.69
2023-01-12T23:19:23.912Z,76.32
2023-01-12T23:22:25.657Z,76.31
2023-01-12T23:25:27.242Z,76.23
2023-01-12T23:28:29.221Z,76.02
2023-01-12T23:31:32.759Z,75.96
2023-01-12T23:34:54.380Z,76.23
2023-01-12T23:37:56.161Z,76.35
2023-01-12T23:40:57.963Z,76.39
2023-01-12T23:44:01.507Z,76.42
2023-01-12T23:47:03.245Z,76.45
2023-01-12T23:50:05.066Z,76.52
2023-01-12T23:53:06.747Z,76.73
2023-01-12T23:56:10.907Z,76.68
2023-01-12T23:59:12.724Z,76.70
